createdAt,value
2022-11-21T03:07:29.574Z,100214.00
2022-11-21T03:09:57.697Z,100210.00
2022-11-21T03:12:27.853Z,100193.00
2022-11-21T03:14:58.205Z,100202.00
2022-11-21T03:17:28.120Z,100214.00
2022-11-21T03:19:59.006Z,100207.00
2022-11-21T03:22:29.553Z,100215.00
2022-11-21T03:24:57.006Z,100202.00
2022-11-21T03:27:30.462Z,100202.00
2022-11-21T03:29:58.153Z,100198.00
2022-11-21T03:32:28.758Z,100197.00
2022-11-21T03:35:04.800Z,100200.00
2022-11-21T03:37:32.636Z,100187.00
2022-11-21T03:40:00.353Z,100181.00
2022-11-21T03:42:28.006Z,100172.00
2022-11-21T03:44:58.725Z,100191.00
2022-11-21T03:47:29.174Z,100187.00
2022-11-21T03:49:59.472Z,100185.00
2022-11-21T03:52:27.078Z,100193.00
2022-11-21T03:54:57.648Z,100180.00
2022-11-21T03:57:26.911Z,100193.00
2022-11-21T03:59:54.110Z,100187.00
2022-11-21T04:02:21.364Z,100181.00
2022-11-21T04:04:48.513Z,100187.00
2022-11-21T04:07:16.668Z,100194.00
2022-11-21T04:09:43.894Z,100194.00
2022-11-21T04:12:11.064Z,100193.00
2022-11-21T04:14:38.350Z,100190.00
2022-11-21T04:17:08.261Z,100189.00
2022-11-21T04:19:40.150Z,100187.00
2022-11-21T04:22:07.269Z,100192.00
2022-11-21T04:24:34.838Z,100192.00
2022-11-21T04:27:01.923Z,100190.00
2022-11-21T04:29:29.007Z,100196.00
2022-11-21T04:31:58.479Z,100197.00
2022-11-21T04:34:25.952Z,100178.00
2022-11-21T04:36:53.173Z,100183.00
2022-11-21T04:39:20.329Z,100176.00
2022-11-21T04:41:47.901Z,100187.00
2022-11-21T04:44:16.023Z,100179.00
2022-11-21T04:46:43.134Z,100181.00
2022-11-21T04:49:10.392Z,100182.00
2022-11-21T04:51:37.688Z,100177.00
2022-11-21T04:54:06.418Z,100173.00
2022-11-21T04:56:33.730Z,100177.00
2022-11-21T04:59:00.820Z,100172.00
2022-11-21T05:01:28.035Z,100177.00
2022-11-21T05:03:55.356Z,100169.00
2022-11-21T05:06:22.634Z,100170.00
2022-11-21T05:08:53.517Z,100166.00
2022-11-21T05:11:39.829Z,100150.00
2022-11-21T05:14:09.729Z,100144.00
2022-11-21T05:16:39.928Z,100151.00
2022-11-21T05:19:13.612Z,100147.00
2022-11-21T05:21:40.763Z,100163.00
2022-11-21T05:24:08.328Z,100166.00
2022-11-21T05:26:35.575Z,100164.00
2022-11-21T05:29:02.816Z,100153.00
2022-11-21T05:31:30.042Z,100159.00
2022-11-21T05:34:00.668Z,100160.00
2022-11-21T05:36:27.961Z,100161.00
2022-11-21T05:38:55.267Z,100151.00
2022-11-21T05:41:22.975Z,100149.00
2022-11-21T05:43:50.398Z,100143.00
2022-11-21T05:46:23.799Z,100152.00
2022-11-21T05:48:54.983Z,100149.00
2022-11-21T05:51:22.589Z,100147.00
2022-11-21T05:53:49.905Z,100147.00
2022-11-21T05:56:19.926Z,100139.00
2022-11-21T05:58:47.584Z,100136.00
2022-11-21T06:01:16.476Z,100129.00
2022-11-21T06:03:49.197Z,100118.00
2022-11-21T06:06:24.742Z,100133.00
2022-11-21T06:08:52.311Z,100136.00
2022-11-21T06:11:22.208Z,100136.00
2022-11-21T06:13:49.377Z,100137.00
2022-11-21T06:16:19.834Z,100134.00
2022-11-21T06:18:53.882Z,100131.00
2022-11-21T06:21:28.651Z,100138.00
2022-11-21T06:23:59.537Z,100129.00
2022-11-21T06:26:28.416Z,100115.00
2022-11-21T06:28:56.120Z,100116.00
2022-11-21T06:31:28.240Z,100129.00
2022-11-21T06:33:58.242Z,100134.00
2022-11-21T06:36:28.877Z,100126.00
2022-11-21T06:38:59.232Z,100130.00
2022-11-21T06:41:30.434Z,100116.00
2022-11-21T06:44:01.461Z,100119.00
2022-11-21T06:46:29.264Z,100121.00
2022-11-21T06:48:56.440Z,100117.00
2022-11-21T06:51:25.364Z,100114.00
2022-11-21T06:53:59.402Z,100111.00
2022-11-21T06:56:29.639Z,100102.00
2022-11-21T06:58:59.474Z,100099.00
2022-11-21T07:01:29.320Z,100115.00
2022-11-21T07:03:56.533Z,100104.00
2022-11-21T07:06:24.704Z,100100.00
2022-11-21T07:11:42.459Z,100102.00
2022-11-21T07:14:16.226Z,100086.00
2022-11-21T07:16:43.334Z,100098.00
2022-11-21T07:19:10.446Z,100098.00
2022-11-21T07:21:40.602Z,100095.00
2022-11-21T07:24:07.916Z,100096.00
2022-11-21T07:26:35.061Z,100088.00
2022-11-21T07:29:02.247Z,100093.00
2022-11-21T07:31:29.527Z,100097.00
2022-11-21T07:33:56.842Z,100099.00
2022-11-21T07:36:26.175Z,100098.00
2022-11-21T07:38:53.324Z,100099.00
2022-11-21T07:41:20.577Z,100085.00
2022-11-21T07:43:47.857Z,100084.00
2022-11-21T07:46:15.031Z,100068.00
2022-11-21T07:48:42.412Z,100073.00
2022-11-21T07:51:10.308Z,100060.00
2022-11-21T07:53:37.661Z,100074.00
2022-11-21T07:56:08.412Z,100073.00
2022-11-21T07:58:37.277Z,100062.00
2022-11-21T08:01:10.956Z,100059.00
2022-11-21T08:03:41.497Z,100068.00
2022-11-21T08:06:13.070Z,100057.00
2022-11-21T08:08:45.107Z,100065.00
2022-11-21T08:11:12.235Z,100073.00
2022-11-21T08:13:39.530Z,100073.00
2022-11-21T08:16:06.995Z,100066.00
2022-11-21T08:18:34.932Z,100065.00
2022-11-21T08:21:04.472Z,100064.00
2022-11-21T08:23:32.918Z,100055.00
2022-11-21T08:26:00.934Z,100062.00
2022-11-21T08:28:29.509Z,100052.00
2022-11-21T08:30:57.238Z,100045.00
2022-11-21T08:33:24.946Z,100057.00
2022-11-21T08:35:52.572Z,100059.00
2022-11-21T08:38:23.019Z,100054.00
2022-11-21T08:41:17.491Z,100038.00
2022-11-21T08:43:46.073Z,100043.00
2022-11-21T08:46:13.298Z,100049.00
2022-11-21T08:48:40.776Z,100054.00
2022-11-21T08:51:07.925Z,100043.00
2022-11-21T08:53:35.022Z,100037.00
2022-11-21T08:56:04.376Z,100033.00
2022-11-21T08:58:33.346Z,100017.00
2022-11-21T09:01:03.324Z,100011.00
2022-11-21T09:03:31.637Z,100018.00
2022-11-21T09:06:00.450Z,99998.00
2022-11-21T09:08:29.111Z,100004.00
2022-11-21T09:10:56.283Z,100003.00
2022-11-21T09:13:23.914Z,99996.00
2022-11-21T09:16:17.638Z,99996.00
2022-11-21T09:18:49.719Z,100000.00
2022-11-21T09:21:21.696Z,100000.00
2022-11-21T09:23:51.445Z,100002.00
2022-11-21T09:26:18.557Z,99975.00
2022-11-21T09:28:46.874Z,99973.00
2022-11-21T09:31:14.230Z,99984.00
2022-11-21T09:33:44.344Z,99982.00
2022-11-21T09:36:11.639Z,99997.00
2022-11-21T09:38:38.987Z,99985.00
2022-11-21T09:42:00.014Z,99980.00
2022-11-21T09:45:05.161Z,99994.00
2022-11-21T09:47:52.881Z,99981.00
2022-11-21T09:50:36.417Z,99985.00
2022-11-21T09:53:20.307Z,99972.00
2022-11-21T09:55:52.370Z,99964.00
2022-11-21T09:58:38.099Z,99962.00
2022-11-21T10:01:05.986Z,99971.00
2022-11-21T10:03:43.221Z,99967.00
2022-11-21T10:06:29.797Z,99963.00
2022-11-21T10:09:18.502Z,99961.00
2022-11-21T10:12:22.073Z,99953.00
2022-11-21T10:15:05.612Z,99957.00
2022-11-21T10:18:04.428Z,99954.00
2022-11-21T10:21:16.676Z,99949.00
2022-11-21T10:23:54.934Z,99951.00
2022-11-21T10:26:52.283Z,99938.00
2022-11-21T10:29:42.365Z,99935.00
2022-11-21T10:32:30.906Z,99932.00
2022-11-21T10:35:16.919Z,99922.00
2022-11-21T10:38:03.428Z,99928.00
2022-11-21T10:41:05.072Z,99922.00
2022-11-21T10:44:23.805Z,99918.00
2022-11-21T10:47:02.111Z,99911.00
2022-11-21T10:49:34.592Z,99907.00
2022-11-21T10:52:19.420Z,99898.00
2022-11-21T10:55:11.758Z,99890.00
2022-11-21T10:57:49.524Z,99896.00
2022-11-21T11:00:25.437Z,99888.00
2022-11-21T11:02:55.707Z,99886.00
2022-11-21T11:05:27.817Z,99887.00
2022-11-21T11:08:15.582Z,99874.00
2022-11-21T11:11:02.983Z,99869.00
2022-11-21T11:13:50.636Z,99859.00
2022-11-21T11:16:22.285Z,99859.00
2022-11-21T11:19:05.097Z,99849.00
2022-11-21T11:21:41.788Z,99847.00
2022-11-21T11:24:14.328Z,99845.00
2022-11-21T11:26:48.544Z,99838.00
2022-11-21T11:29:22.878Z,99841.00
2022-11-21T11:31:59.158Z,99825.00
2022-11-21T11:34:37.446Z,99829.00
2022-11-21T11:37:42.443Z,99819.00
2022-11-21T11:40:38.672Z,99813.00
2022-11-21T11:43:56.692Z,99804.00
2022-11-21T11:47:15.871Z,99807.00
2022-11-21T11:50:14.007Z,99802.00
2022-11-21T11:52:48.426Z,99792.00
2022-11-21T11:55:43.966Z,99780.00
2022-11-21T11:58:58.879Z,99782.00
2022-11-21T12:01:50.330Z,99766.00
2022-11-21T12:04:25.992Z,99759.00
2022-11-21T12:08:12.730Z,99755.00
2022-11-21T12:10:28.904Z,99745.00
2022-11-21T12:13:14.594Z,99735.00
2022-11-21T12:15:50.890Z,99737.00
2022-11-21T12:18:36.520Z,99731.00
2022-11-21T12:21:20.460Z,99731.00
2022-11-21T12:23:58.187Z,99725.00
2022-11-21T12:27:03.340Z,99726.00
2022-11-21T12:30:27.239Z,99716.00
2022-11-21T12:33:23.814Z,99702.00
2022-11-21T12:36:25.960Z,99713.00
2022-11-21T12:39:25.574Z,99715.00
2022-11-21T12:42:26.888Z,99703.00
2022-11-21T12:45:32.895Z,99700.00
2022-11-21T12:48:54.952Z,99689.00
2022-11-21T12:52:24.518Z,99689.00
2022-11-21T12:55:35.826Z,99695.00
2022-11-21T12:58:13.836Z,99691.00
2022-11-21T13:01:45.987Z,99679.00
2022-11-21T13:04:27.010Z,99665.00
2022-11-21T13:06:58.298Z,99664.00
2022-11-21T13:09:30.680Z,99677.00
2022-11-21T13:12:13.078Z,99661.00
2022-11-21T13:14:52.040Z,99653.00
2022-11-21T13:17:25.754Z,99642.00
2022-11-21T13:20:20.808Z,99640.00
2022-11-21T13:22:55.982Z,99624.00
2022-11-21T13:25:32.930Z,99623.00
2022-11-21T13:28:18.871Z,99607.00
2022-11-21T13:30:55.742Z,99592.00
2022-11-21T13:33:35.977Z,99595.00
2022-11-21T13:36:30.580Z,99594.00
2022-11-21T13:39:18.079Z,99593.00
2022-11-21T13:42:09.944Z,99598.00
2022-11-21T13:44:41.209Z,99572.00
2022-11-21T13:47:26.995Z,99580.00
2022-11-21T13:50:21.475Z,99556.00
2022-11-21T13:53:26.499Z,99543.00
2022-11-21T13:56:06.176Z,99553.00
2022-11-21T13:59:29.293Z,99542.00
2022-11-21T14:02:27.715Z,99542.00
2022-11-21T14:05:25.172Z,99522.00
2022-11-21T14:07:52.602Z,99527.00
2022-11-21T14:10:34.458Z,99536.00
2022-11-21T14:13:04.297Z,99522.00
2022-11-21T14:15:44.477Z,99518.00
2022-11-21T14:18:25.826Z,99513.00
2022-11-21T14:20:58.348Z,99501.00
2022-11-21T14:23:31.802Z,99506.00
2022-11-21T14:26:08.680Z,99499.00
2022-11-21T14:28:36.801Z,99491.00
2022-11-21T14:31:09.136Z,99471.00
2022-11-21T14:33:44.061Z,99471.00
2022-11-21T14:36:19.609Z,99466.00
2022-11-21T14:39:28.961Z,99463.00
2022-11-21T14:41:51.818Z,99459.00
2022-11-21T14:44:22.387Z,99454.00
2022-11-21T14:46:51.507Z,99460.00
2022-11-21T14:49:24.826Z,99456.00
2022-11-21T14:52:16.355Z,99453.00
2022-11-21T14:57:48.970Z,99446.00
2022-11-21T15:00:57.377Z,99440.00
2022-11-21T15:03:24.654Z,99419.00
2022-11-21T15:06:08.756Z,99415.00
2022-11-21T15:11:34.133Z,99401.00
2022-11-21T15:14:35.929Z,99397.00
2022-11-21T15:17:09.135Z,99395.00
2022-11-21T15:19:36.669Z,99404.00
2022-11-21T15:22:07.026Z,99387.00
2022-11-21T15:24:47.232Z,99376.00
2022-11-21T15:27:31.837Z,99386.00
2022-11-21T15:30:30.217Z,99367.00
2022-11-21T15:33:07.019Z,99382.00
2022-11-21T15:36:15.628Z,99374.00
2022-11-21T15:38:58.166Z,99379.00
2022-11-21T15:41:35.515Z,99373.00
2022-11-21T15:44:02.593Z,99372.00
2022-11-21T15:46:42.313Z,99364.00
2022-11-21T15:49:32.063Z,99364.00
2022-11-21T15:52:09.544Z,99363.00
2022-11-21T15:54:37.408Z,99353.00
2022-11-21T15:57:08.094Z,99358.00
2022-11-21T15:59:39.080Z,99354.00
2022-11-21T16:02:07.143Z,99353.00
2022-11-21T16:04:40.133Z,99353.00
2022-11-21T16:07:07.580Z,99335.00
2022-11-21T16:09:36.283Z,99328.00
2022-11-21T16:12:03.579Z,99317.00
2022-11-21T16:14:30.763Z,99317.00
2022-11-21T16:16:57.982Z,99311.00
2022-11-21T16:19:27.529Z,99300.00
2022-11-21T16:21:56.899Z,99304.00
2022-11-21T16:24:24.007Z,99295.00
2022-11-21T16:26:56.185Z,99274.00
2022-11-21T16:29:23.541Z,99274.00
2022-11-21T16:31:51.872Z,99279.00
2022-11-21T16:34:20.153Z,99271.00
2022-11-21T16:36:47.313Z,99266.00
2022-11-21T16:39:29.476Z,99267.00
2022-11-21T16:42:02.765Z,99263.00
2022-11-21T16:44:31.385Z,99264.00
2022-11-21T16:47:02.324Z,99268.00
2022-11-21T16:49:32.641Z,99263.00
2022-11-21T16:52:00.006Z,99261.00
2022-11-21T16:54:27.270Z,99255.00
2022-11-21T16:56:54.324Z,99249.00
2022-11-21T16:59:21.405Z,99251.00
2022-11-21T17:01:49.648Z,99247.00
2022-11-21T17:04:17.747Z,99244.00
2022-11-21T17:06:47.069Z,99255.00
2022-11-21T17:09:14.904Z,99231.00
2022-11-21T17:11:44.454Z,99211.00
2022-11-21T17:14:13.315Z,99205.00
2022-11-21T17:16:41.821Z,99212.00
2022-11-21T17:19:12.506Z,99227.00
2022-11-21T17:21:39.645Z,99231.00
2022-11-21T17:24:12.011Z,99223.00
2022-11-21T17:26:39.158Z,99217.00
2022-11-21T17:29:10.356Z,99207.00
2022-11-21T17:31:38.415Z,99201.00
2022-11-21T17:34:05.978Z,99202.00
2022-11-21T17:36:35.019Z,99191.00
2022-11-21T17:39:03.092Z,99193.00
2022-11-21T17:41:30.651Z,99173.00
2022-11-21T17:44:01.380Z,99161.00
2022-11-21T17:46:29.246Z,99173.00
2022-11-21T17:49:00.936Z,99159.00
2022-11-21T17:51:34.649Z,99158.00
2022-11-21T17:54:02.760Z,99170.00
2022-11-21T17:56:33.945Z,99167.00
2022-11-21T17:59:01.726Z,99167.00
2022-11-21T18:01:33.717Z,99149.00
2022-11-21T18:04:11.861Z,99158.00
2022-11-21T18:06:42.068Z,99169.00
2022-11-21T18:09:12.349Z,99179.00
2022-11-21T18:11:40.788Z,99168.00
2022-11-21T18:14:11.379Z,99192.00
2022-11-21T18:16:47.629Z,99195.00
2022-11-21T18:19:21.343Z,99189.00
2022-11-21T18:21:49.394Z,99176.00
2022-11-21T18:24:16.974Z,99157.00
2022-11-21T18:26:44.359Z,99166.00
2022-11-21T18:31:58.969Z,99141.00
2022-11-21T18:34:26.300Z,99145.00
2022-11-21T18:36:54.688Z,99129.00
2022-11-21T18:39:25.500Z,99141.00
2022-11-21T18:41:52.943Z,99129.00
2022-11-21T18:44:22.259Z,99132.00
2022-11-21T18:46:50.612Z,99124.00
2022-11-21T18:49:18.265Z,99114.00
2022-11-21T18:51:45.784Z,99123.00
2022-11-21T18:54:13.268Z,99117.00
2022-11-21T18:56:40.983Z,99112.00
2022-11-21T18:59:11.535Z,99100.00
2022-11-21T19:01:42.032Z,99102.00
2022-11-21T19:04:12.418Z,99097.00
2022-11-21T19:06:39.694Z,99100.00
2022-11-21T19:09:08.566Z,99094.00
2022-11-21T19:11:35.897Z,99096.00
2022-11-21T19:14:03.140Z,99090.00
2022-11-21T19:16:34.498Z,99065.00
2022-11-21T19:19:33.775Z,99074.00
2022-11-21T19:21:52.684Z,99044.00
2022-11-21T19:24:20.104Z,99050.00
2022-11-21T19:26:47.728Z,99067.00
2022-11-21T19:29:14.956Z,99060.00
2022-11-21T19:31:45.697Z,99053.00
2022-11-21T19:34:15.520Z,99047.00
2022-11-21T19:36:43.612Z,99039.00
2022-11-21T19:39:11.930Z,99019.00
2022-11-21T19:41:43.706Z,99035.00
2022-11-21T19:44:12.261Z,99022.00
2022-11-21T19:46:41.105Z,99028.00
2022-11-21T19:49:11.625Z,99027.00
2022-11-21T19:51:45.897Z,99030.00
2022-11-21T19:54:16.848Z,99023.00
2022-11-21T19:56:46.760Z,99011.00
2022-11-21T19:59:24.604Z,99008.00
2022-11-21T20:02:00.524Z,99017.00
2022-11-21T20:04:40.346Z,99000.00
2022-11-21T20:07:08.475Z,99012.00
2022-11-21T20:09:40.489Z,98992.00
2022-11-21T20:12:16.843Z,98971.00
2022-11-21T20:14:44.140Z,98993.00
2022-11-21T20:17:12.783Z,98979.00
2022-11-21T20:19:47.821Z,98987.00
2022-11-21T20:22:18.137Z,98965.00
2022-11-21T20:24:51.523Z,98970.00
2022-11-21T20:27:22.023Z,98956.00
2022-11-21T20:29:52.544Z,98960.00
2022-11-21T20:32:22.546Z,98953.00
2022-11-21T20:34:52.791Z,98948.00
2022-11-21T20:37:20.511Z,98950.00
2022-11-21T20:39:48.058Z,98958.00
2022-11-21T20:42:15.672Z,98953.00
2022-11-21T20:45:54.448Z,98955.00
2022-11-21T20:47:36.803Z,98957.00
2022-11-21T20:50:05.190Z,98946.00
2022-11-21T20:55:23.957Z,98947.00
2022-11-21T20:57:51.565Z,98939.00
2022-11-21T21:00:20.127Z,98925.00
2022-11-21T21:02:47.708Z,98923.00
2022-11-21T21:05:15.098Z,98942.00
2022-11-21T21:07:42.346Z,98932.00
2022-11-21T21:10:13.195Z,98936.00
2022-11-21T21:12:45.733Z,98932.00
2022-11-21T21:15:15.700Z,98930.00
2022-11-21T21:17:45.682Z,98926.00
2022-11-21T21:20:13.032Z,98928.00
2022-11-21T21:22:41.957Z,98928.00
2022-11-21T21:25:12.081Z,98927.00
2022-11-21T21:27:39.537Z,98906.00
2022-11-21T21:30:08.138Z,98921.00
2022-11-21T21:32:35.844Z,98911.00
2022-11-21T21:35:03.146Z,98927.00
2022-11-21T21:37:30.601Z,98913.00
2022-11-21T21:39:57.858Z,98916.00
2022-11-21T21:42:25.259Z,98904.00
2022-11-21T21:44:52.612Z,98889.00
2022-11-21T21:47:21.404Z,98904.00
2022-11-21T21:49:49.311Z,98899.00
2022-11-21T21:52:17.997Z,98895.00
2022-11-21T21:54:45.395Z,98887.00
2022-11-21T21:57:12.718Z,98891.00
2022-11-21T21:59:39.967Z,98893.00
2022-11-21T22:02:07.444Z,98891.00
2022-11-21T22:04:34.598Z,98892.00
2022-11-21T22:07:02.943Z,98893.00
2022-11-21T22:09:30.504Z,98892.00
2022-11-21T22:11:57.862Z,98877.00
2022-11-21T22:14:28.139Z,98877.00
2022-11-21T22:16:58.126Z,98873.00
2022-11-21T22:19:25.360Z,98870.00
2022-11-21T22:21:52.571Z,98864.00
2022-11-21T22:24:26.298Z,98863.00
2022-11-21T22:26:54.334Z,98863.00
2022-11-21T22:29:24.909Z,98853.00
2022-11-21T22:31:52.319Z,98860.00
2022-11-21T22:34:22.864Z,98852.00
2022-11-21T22:36:50.213Z,98859.00
2022-11-21T22:39:18.150Z,98847.00
2022-11-21T22:41:45.608Z,98855.00
2022-11-21T22:44:13.256Z,98854.00
2022-11-21T22:46:42.701Z,98847.00
2022-11-21T22:49:09.957Z,98847.00
2022-11-21T22:51:37.505Z,98845.00
2022-11-21T22:54:04.813Z,98854.00
2022-11-21T22:56:32.448Z,98861.00
2022-11-21T22:58:59.744Z,98846.00
2022-11-21T23:01:27.190Z,98858.00
2022-11-21T23:03:56.119Z,98859.00
2022-11-21T23:06:26.787Z,98855.00
2022-11-21T23:08:56.161Z,98856.00
2022-11-21T23:11:33.747Z,98867.00
2022-11-21T23:14:03.708Z,98866.00
2022-11-21T23:16:30.972Z,98865.00
2022-11-21T23:18:58.180Z,98854.00
2022-11-21T23:21:25.428Z,98856.00
2022-11-21T23:23:52.897Z,98843.00
2022-11-21T23:26:20.510Z,98842.00
2022-11-21T23:28:48.053Z,98857.00
2022-11-21T23:31:15.367Z,98845.00
2022-11-21T23:33:46.098Z,98833.00
2022-11-21T23:36:13.578Z,98836.00
2022-11-21T23:38:41.855Z,98837.00
2022-11-21T23:41:09.127Z,98826.00
2022-11-21T23:43:36.315Z,98825.00
2022-11-21T23:46:03.618Z,98825.00
2022-11-21T23:48:30.791Z,98836.00
2022-11-21T23:50:57.893Z,98839.00
2022-11-21T23:53:25.044Z,98850.00
2022-11-21T23:55:52.294Z,98840.00
2022-11-21T23:58:19.499Z,98852.00
